Time;durP1;ratioP1;P1;durP2;ratioP2;P2;SDS_P1;SDS_P2;PMS_P1;PMS_P2;Temp;Humidity;BMP_temperature;BMP_pressure;BME280_temperature;BME280_humidity;BME280_pressure;Samples;Min_cycle;Max_cycle;Signal;HPM_P1;HPM_P2
2023/09/24 00:01:27;;;;;;;2.67;1.10;;;20.30;86.80;;;;;;5012104;28;20057;-28
2023/09/24 00:03:54;;;;;;;1.05;0.95;;;;;;;;;;5011717;28;20081;-30
2023/09/24 00:06:22;;;;;;;1.20;1.10;;;19.90;87.00;;;;;;5012005;28;20133;-29
2023/09/24 00:08:49;;;;;;;1.33;0.90;;;;;;;;;;5011760;28;20128;-31
2023/09/24 00:11:16;;;;;;;1.13;1.02;;;;;;;;;;5011919;28;20053;-28
2023/09/24 00:13:43;;;;;;;1.27;1.10;;;19.20;82.70;;;;;;5010180;28;20414;-29
2023/09/24 00:16:11;;;;;;;1.80;1.20;;;19.80;85.70;;;;;;5011777;28;20410;-28
2023/09/24 00:18:37;;;;;;;1.33;1.00;;;19.10;86.20;;;;;;5011363;28;20129;-28
2023/09/24 00:21:04;;;;;;;1.60;1.08;;;19.00;86.60;;;;;;5011293;28;20057;-29
2023/09/24 00:23:30;;;;;;;1.30;1.10;;;20.20;87.20;;;;;;5012102;28;20129;-32
2023/09/24 00:25:57;;;;;;;2.08;1.10;;;19.40;77.50;;;;;;5011396;28;20133;-32
2023/09/24 00:28:24;;;;;;;1.30;1.00;;;19.00;86.80;;;;;;5010212;28;20072;-32
2023/09/24 00:30:51;;;;;;;1.00;0.90;;;;;;;;;;5011282;28;20129;-32
2023/09/24 00:33:21;;;;;;;1.10;1.00;;;19.10;70.10;;;;;;5011594;28;20134;-32
2023/09/24 00:35:48;;;;;;;1.52;1.00;;;19.40;86.80;;;;;;5011140;28;20060;-31
2023/09/24 00:38:15;;;;;;;1.40;1.00;;;;;;;;;;5027481;28;20124;-32
2023/09/24 00:40:42;;;;;;;1.38;1.10;;;;;;;;;;5031162;28;20136;-31
2023/09/24 00:43:28;;;;;;;1.40;1.10;;;19.10;86.40;;;;;;5031315;28;20132;-32
2023/09/24 00:45:55;;;;;;;2.90;1.20;;;18.90;86.50;;;;;;5031254;28;20041;-31
2023/09/24 00:48:27;;;;;;;1.20;1.00;;;19.10;70.10;;;;;;5034281;28;20053;-31
2023/09/24 00:50:54;;;;;;;1.45;1.00;;;18.90;78.40;;;;;;5030729;28;20454;-32
2023/09/24 00:53:21;;;;;;;1.63;1.00;;;19.10;86.80;;;;;;5015079;28;20563;-32
2023/09/24 00:55:47;;;;;;;1.00;0.90;;;18.10;86.20;;;;;;5014832;28;20169;-31
2023/09/24 00:58:14;;;;;;;1.27;0.90;;;18.80;73.00;;;;;;5003865;28;20153;-32
2023/09/24 01:00:41;;;;;;;3.13;1.20;;;;;;;;;;4995172;28;20504;-32
2023/09/24 01:03:09;;;;;;;1.98;1.17;;;;;;;;;;4995496;28;20074;-31
2023/09/24 01:05:38;;;;;;;1.10;1.00;;;19.10;70.00;;;;;;4995153;28;20133;-30
2023/09/24 01:08:05;;;;;;;1.35;1.05;;;18.90;86.50;;;;;;5005213;28;20104;-31
2023/09/24 01:10:32;;;;;;;1.65;1.17;;;;;;;;;;5014465;28;20046;-30
2023/09/24 01:13:00;;;;;;;1.23;1.02;;;19.10;86.30;;;;;;5014202;28;20133;-31
2023/09/24 01:15:28;;;;;;;1.58;1.10;;;;;;;;;;5014211;28;20053;-31
2023/09/24 01:17:55;;;;;;;1.80;1.00;;;19.10;86.30;;;;;;5014348;28;20050;-31
2023/09/24 01:20:22;;;;;;;1.02;0.93;;;19.40;86.80;;;;;;5014560;28;20471;-31
2023/09/24 01:22:51;;;;;;;1.30;1.20;;;19.10;70.40;;;;;;5014259;28;20053;-31
2023/09/24 01:25:19;;;;;;;1.42;0.98;;;20.10;87.10;;;;;;5013787;28;20050;-31
2023/09/24 01:27:45;;;;;;;1.27;1.15;;;19.10;86.20;;;;;;5014109;28;20054;-31
2023/09/24 01:30:13;;;;;;;1.38;1.10;;;19.10;86.40;;;;;;5014101;28;20128;-31
2023/09/24 01:32:41;;;;;;;1.30;1.10;;;19.80;86.40;;;;;;5014301;28;20064;-31
2023/09/24 01:35:08;;;;;;;1.20;1.10;;;18.80;86.20;;;;;;5014440;28;20149;-31
2023/09/24 01:37:35;;;;;;;1.33;1.05;;;;;;;;;;5024101;28;20096;-31
2023/09/24 01:40:10;;;;;;;1.48;1.20;;;19.00;70.00;;;;;;5026428;28;20137;-32
2023/09/24 01:42:39;;;;;;;1.48;1.00;;;19.10;86.60;;;;;;5014014;28;20060;-31
2023/09/24 01:45:08;;;;;;;2.30;1.25;;;19.70;70.70;;;;;;5012529;28;20396;-31
2023/09/24 01:47:37;;;;;;;1.20;1.02;;;;;;;;;;5013903;28;20072;-30
2023/09/24 01:50:08;;;;;;;1.80;1.00;;;19.10;70.00;;;;;;5014156;28;20410;-31
2023/09/24 01:52:35;;;;;;;1.23;1.00;;;18.00;85.80;;;;;;5013590;28;20057;-31
2023/09/24 01:55:02;;;;;;;1.00;1.00;;;;;;;;;;5013599;28;20085;-31
2023/09/24 01:57:30;;;;;;;1.02;0.93;;;19.10;86.60;;;;;;5013247;28;20133;-31
2023/09/24 01:59:58;;;;;;;1.40;1.08;;;18.50;86.10;;;;;;5012618;28;20053;-31
2023/09/24 02:02:28;;;;;;;1.33;1.00;;;18.80;86.60;;;;;;5013803;28;20046;-31
2023/09/24 02:04:55;;;;;;;1.17;1.00;;;18.20;86.00;;;;;;5013722;28;20046;-29
2023/09/24 02:07:22;;;;;;;1.50;1.38;;;;;;;;;;5013665;28;20054;-30
2023/09/24 02:09:50;;;;;;;1.20;1.05;;;;;;;;;;5013567;28;20129;-29
2023/09/24 02:12:16;;;;;;;1.20;1.00;;;19.10;76.00;;;;;;5012990;28;20042;-28
2023/09/24 02:14:45;;;;;;;2.38;0.90;;;18.00;85.80;;;;;;5012679;28;20128;-28
2023/09/24 02:17:12;;;;;;;2.47;1.10;;;;;;;;;;5013296;28;20079;-28
2023/09/24 02:19:38;;;;;;;1.20;0.90;;;18.70;72.20;;;;;;5013276;28;20136;-29
2023/09/24 02:22:05;;;;;;;1.38;1.02;;;18.20;86.00;;;;;;5012798;28;20531;-29
2023/09/24 02:24:35;;;;;;;1.10;1.00;;;;;;;;;;5013159;28;20050;-28
2023/09/24 02:27:04;;;;;;;0.98;0.90;;;18.80;86.50;;;;;;5012874;28;20131;-29
2023/09/24 02:29:31;;;;;;;1.00;0.90;;;;;;;;;;5012774;28;20050;-29
2023/09/24 02:31:59;;;;;;;1.60;1.10;;;19.10;70.10;;;;;;5012850;28;20137;-29
2023/09/24 02:34:25;;;;;;;1.10;1.00;;;18.90;86.30;;;;;;5012878;28;20554;-28
2023/09/24 02:36:52;;;;;;;1.40;0.90;;;19.30;86.70;;;;;;5017427;28;20129;-28
2023/09/24 02:39:22;;;;;;;1.50;1.13;;;;;;;;;;5032861;28;20041;-29
2023/09/24 02:41:50;;;;;;;1.10;1.00;;;;;;;;;;5032472;28;20049;-29
2023/09/24 02:44:17;;;;;;;0.98;0.90;;;19.80;82.90;;;;;;5032264;28;20525;-29
2023/09/24 02:46:44;;;;;;;1.55;1.00;;;19.10;87.20;;;;;;5012460;28;20050;-29
2023/09/24 02:49:12;;;;;;;1.25;1.00;;;19.00;86.70;;;;;;5012532;28;20133;-29
2023/09/24 02:51:38;;;;;;;1.25;1.10;;;18.80;86.90;;;;;;5012930;28;20465;-29
2023/09/24 02:54:08;;;;;;;0.98;0.95;;;19.00;86.80;;;;;;5012595;28;20140;-28
2023/09/24 02:56:34;;;;;;;1.73;1.10;;;18.80;86.70;;;;;;5012457;28;20593;-29
2023/09/24 02:59:01;;;;;;;1.25;1.00;;;18.30;86.30;;;;;;5012468;28;20128;-28
2023/09/24 03:01:28;;;;;;;1.85;1.20;;;19.40;73.90;;;;;;5012123;28;20133;-29
2023/09/24 03:03:55;;;;;;;1.20;1.10;;;18.70;86.30;;;;;;5012772;28;20077;-29
2023/09/24 03:06:23;;;;;;;1.30;1.00;;;19.70;86.80;;;;;;5012748;28;20128;-28
2023/09/24 03:08:50;;;;;;;1.10;1.00;;;18.90;77.40;;;;;;5012321;28;20049;-29
2023/09/24 03:11:17;;;;;;;1.25;1.00;;;18.80;86.60;;;;;;5011829;28;20125;-28
2023/09/24 03:13:43;;;;;;;1.38;1.10;;;19.00;86.80;;;;;;5012354;28;20142;-29
2023/09/24 03:16:10;;;;;;;1.10;1.00;;;20.20;72.70;;;;;;5012511;28;20137;-28
2023/09/24 03:18:36;;;;;;;0.98;0.90;;;19.00;80.20;;;;;;5011799;28;20046;-29
2023/09/24 03:21:05;;;;;;;1.33;1.00;;;18.20;85.90;;;;;;5011971;28;20140;-29
2023/09/24 03:23:34;;;;;;;1.20;1.10;;;19.10;70.10;;;;;;5012297;28;20054;-30
2023/09/24 03:26:01;;;;;;;1.13;1.00;;;;;;;;;;5012190;28;20053;-29
2023/09/24 03:28:28;;;;;;;1.38;1.10;;;;;;;;;;5011890;28;20130;-30
2023/09/24 03:30:55;;;;;;;1.02;0.75;;;;;;;;;;5012109;28;20128;-30
2023/09/24 03:33:22;;;;;;;1.90;1.00;;;18.20;78.60;;;;;;5012312;28;20056;-28
2023/09/24 03:35:49;;;;;;;1.00;0.90;;;19.40;77.30;;;;;;5012581;28;20060;-29
2023/09/24 03:38:16;;;;;;;1.20;0.98;;;19.20;87.00;;;;;;5018292;28;20513;-28
2023/09/24 03:40:44;;;;;;;2.17;1.20;;;19.30;77.80;;;;;;5011349;28;20054;-29
2023/09/24 03:43:11;;;;;;;1.10;1.00;;;19.10;78.40;;;;;;5011196;28;20699;-29
2023/09/24 03:45:38;;;;;;;0.85;0.85;;;19.70;86.90;;;;;;5006535;28;20121;-29
2023/09/24 03:48:05;;;;;;;1.15;1.05;;;19.60;86.80;;;;;;5011746;28;20458;-29
2023/09/24 03:50:32;;;;;;;1.40;0.98;;;19.10;86.50;;;;;;5011638;28;20046;-29
2023/09/24 03:52:59;;;;;;;1.13;0.90;;;;;;;;;;5011199;28;20165;-28
2023/09/24 03:55:27;;;;;;;1.20;1.10;;;20.30;87.30;;;;;;5009143;28;20129;-29
2023/09/24 03:57:55;;;;;;;1.10;1.00;;;18.80;76.60;;;;;;5011328;28;20057;-29
2023/09/24 04:00:21;;;;;;;1.27;1.00;;;19.00;75.20;;;;;;5011031;28;20092;-29
2023/09/24 04:02:49;;;;;;;0.70;0.70;;;19.90;87.00;;;;;;5011624;28;20050;-28
2023/09/24 04:05:18;;;;;;;1.65;0.95;;;;;;;;;;5012275;28;20054;-30
2023/09/24 04:07:46;;;;;;;1.10;1.00;;;18.30;85.80;;;;;;5011887;28;20056;-29
2023/09/24 04:10:14;;;;;;;1.02;0.93;;;18.40;85.80;;;;;;5011802;28;20046;-29
2023/09/24 04:12:41;;;;;;;1.08;0.95;;;18.90;86.30;;;;;;5011513;28;20499;-29
2023/09/24 04:15:12;;;;;;;1.20;1.10;;;18.90;74.40;;;;;;5011658;28;20054;-29
2023/09/24 04:17:39;;;;;;;1.88;0.90;;;20.40;86.80;;;;;;5011637;28;20129;-28
2023/09/24 04:20:07;;;;;;;1.48;0.90;;;19.10;74.40;;;;;;5011881;28;20361;-29
2023/09/24 04:22:34;;;;;;;0.82;0.82;;;;;;;;;;5013511;28;20103;-30
2023/09/24 04:25:01;;;;;;;1.10;1.00;;;20.60;86.80;;;;;;5015887;28;20455;-29
2023/09/24 04:27:28;;;;;;;0.90;0.90;;;19.50;87.20;;;;;;5015169;28;20133;-28
2023/09/24 04:29:55;;;;;;;1.17;1.00;;;;;;;;;;5015426;28;20057;-29
2023/09/24 04:32:23;;;;;;;1.15;0.90;;;19.00;86.50;;;;;;5014840;28;20128;-29
2023/09/24 04:34:51;;;;;;;0.80;0.80;;;19.80;82.30;;;;;;5015193;28;20058;-29
2023/09/24 04:37:17;;;;;;;1.02;0.93;;;19.30;87.00;;;;;;5021751;28;20053;-29
2023/09/24 04:39:46;;;;;;;1.10;1.00;;;;;;;;;;5035245;28;20125;-29
2023/09/24 04:42:14;;;;;;;1.00;0.90;;;;;;;;;;5034907;28;20053;-29
2023/09/24 04:44:42;;;;;;;1.33;1.00;;;;;;;;;;5034785;28;20053;-30
2023/09/24 04:47:09;;;;;;;1.27;1.00;;;19.10;86.30;;;;;;5028002;28;20057;-29
2023/09/24 04:49:37;;;;;;;1.20;1.10;;;19.60;87.00;;;;;;5014986;28;20458;-28
2023/09/24 04:52:04;;;;;;;0.95;0.90;;;19.30;86.40;;;;;;5014928;28;20136;-29
2023/09/24 04:54:30;;;;;;;0.90;0.90;;;18.40;85.90;;;;;;5015146;28;20137;-29
2023/09/24 04:56:57;;;;;;;1.13;1.02;;;;;;;;;;5014919;28;20125;-29
2023/09/24 04:59:24;;;;;;;1.17;1.08;;;;;;;;;;5015035;28;20128;-29
2023/09/24 05:01:51;;;;;;;1.55;0.98;;;19.40;74.70;;;;;;5014840;28;20133;-29
2023/09/24 05:04:20;;;;;;;1.08;0.93;;;18.80;71.40;;;;;;5014385;28;20100;-29
2023/09/24 05:06:48;;;;;;;2.72;1.10;;;19.40;69.90;;;;;;5014706;28;20057;-30
2023/09/24 05:09:15;;;;;;;1.08;0.93;;;;;;;;;;5014707;28;20125;-30
2023/09/24 05:11:42;;;;;;;1.20;1.00;;;19.60;86.40;;;;;;5014648;28;20076;-28
2023/09/24 05:14:09;;;;;;;1.60;1.00;;;18.60;85.30;;;;;;5004957;28;20125;-28
2023/09/24 05:16:36;;;;;;;1.00;0.90;;;19.20;82.10;;;;;;5004394;28;20487;-29
2023/09/24 05:19:03;;;;;;;1.10;1.00;;;19.10;76.60;;;;;;5014285;28;20130;-29
2023/09/24 05:21:30;;;;;;;1.17;1.08;;;;;;;;;;5013653;28;20458;-30
2023/09/24 05:23:59;;;;;;;1.30;1.10;;;19.50;86.00;;;;;;5014387;28;20046;-29
2023/09/24 05:26:25;;;;;;;1.27;1.10;;;19.50;85.70;;;;;;5014294;28;20408;-29
2023/09/24 05:28:52;;;;;;;2.17;1.20;;;19.50;71.70;;;;;;5013987;28;20133;-29
2023/09/24 05:31:19;;;;;;;1.33;1.10;;;;;;;;;;5013982;28;20582;-29
2023/09/24 05:33:47;;;;;;;1.88;1.10;;;;;;;;;;5014003;28;20049;-30
2023/09/24 05:36:14;;;;;;;1.10;1.00;;;19.80;85.90;;;;;;5013484;28;20042;-29
2023/09/24 05:38:40;;;;;;;1.60;1.20;;;18.90;71.70;;;;;;5033510;28;20128;-29
2023/09/24 05:41:08;;;;;;;1.60;1.33;;;20.30;86.40;;;;;;5034187;28;20467;-28
2023/09/24 05:43:36;;;;;;;1.58;1.20;;;19.90;85.90;;;;;;5033698;28;20136;-29
2023/09/24 05:46:03;;;;;;;2.58;1.23;;;;;;;;;;5033600;28;20076;-30
2023/09/24 05:48:30;;;;;;;1.55;1.35;;;19.70;85.60;;;;;;5033605;28;20132;-29
2023/09/24 05:50:57;;;;;;;1.60;1.40;;;;;;;;;;5033845;28;20046;-29
2023/09/24 05:53:23;;;;;;;1.73;1.35;;;20.80;77.40;;;;;;5016676;28;20129;-28
2023/09/24 05:55:53;;;;;;;1.67;1.40;;;19.70;85.30;;;;;;5013740;28;20132;-29
2023/09/24 05:58:21;;;;;;;1.70;1.50;;;18.60;83.90;;;;;;5013674;28;20092;-29
2023/09/24 06:00:48;;;;;;;1.77;1.40;;;19.90;85.80;;;;;;5013559;28;20148;-28
2023/09/24 06:03:15;;;;;;;2.10;1.50;;;19.50;73.60;;;;;;5013698;28;20058;-29
2023/09/24 06:05:42;;;;;;;1.77;1.45;;;19.60;85.40;;;;;;5013363;28;20129;-29
2023/09/24 06:08:09;;;;;;;1.60;1.40;;;19.80;85.40;;;;;;5013303;28;20046;-29
2023/09/24 06:10:35;;;;;;;1.85;1.50;;;19.70;76.10;;;;;;5013188;28;20132;-29
2023/09/24 06:13:02;;;;;;;1.60;1.50;;;19.30;85.20;;;;;;5013140;28;20049;-29
2023/09/24 06:15:30;;;;;;;2.00;1.50;;;19.80;69.00;;;;;;5013574;28;20077;-30
2023/09/24 06:17:57;;;;;;;1.90;1.48;;;19.20;70.60;;;;;;5013295;28;20081;-29
2023/09/24 06:20:25;;;;;;;2.25;1.80;;;;;;;;;;5013374;28;20045;-29
2023/09/24 06:22:52;;;;;;;1.98;1.50;;;;;;;;;;5012880;28;20503;-30
2023/09/24 06:25:19;;;;;;;2.00;1.70;;;19.80;85.40;;;;;;5013083;28;20156;-29
2023/09/24 06:27:46;;;;;;;2.20;1.77;;;;;;;;;;5013171;28;20137;-30
2023/09/24 06:30:13;;;;;;;2.45;1.90;;;19.70;85.40;;;;;;5013206;28;20045;-29
2023/09/24 06:32:41;;;;;;;2.00;1.63;;;19.70;76.40;;;;;;5012793;28;20134;-29
2023/09/24 06:35:09;;;;;;;2.33;1.85;;;19.70;68.90;;;;;;5012933;28;20128;-29
2023/09/24 06:37:36;;;;;;;2.58;1.70;;;;;;;;;;5023410;28;20072;-29
2023/09/24 06:40:03;;;;;;;1.80;1.60;;;19.80;85.00;;;;;;5032588;28;20124;-29
2023/09/24 06:42:31;;;;;;;2.17;1.85;;;;;;;;;;5013086;28;20045;-29
2023/09/24 06:44:58;;;;;;;1.90;1.70;;;19.00;85.00;;;;;;5012098;28;20128;-29
2023/09/24 06:47:24;;;;;;;1.90;1.67;;;19.60;72.60;;;;;;5012890;28;20403;-29
2023/09/24 06:49:53;;;;;;;2.05;1.80;;;19.80;85.20;;;;;;5012518;28;20132;-29
2023/09/24 06:52:19;;;;;;;2.10;1.77;;;18.80;84.90;;;;;;5006613;28;20049;-29
2023/09/24 06:54:46;;;;;;;1.90;1.60;;;19.70;85.40;;;;;;5012778;28;20125;-29
2023/09/24 06:57:13;;;;;;;2.08;1.65;;;21.00;82.10;;;;;;5012642;28;20443;-29
2023/09/24 06:59:40;;;;;;;4.05;2.05;;;18.70;84.80;;;;;;5012277;28;20121;-29
2023/09/24 07:02:07;;;;;;;2.08;1.88;;;19.50;72.00;;;;;;5013399;28;20132;-29
2023/09/24 07:04:34;;;;;;;3.95;1.90;;;19.00;84.90;;;;;;5011963;28;20086;-29
2023/09/24 07:07:02;;;;;;;2.47;1.90;;;19.90;68.70;;;;;;5010781;28;20567;-31
2023/09/24 07:09:29;;;;;;;2.53;1.90;;;19.80;70.80;;;;;;5009503;28;20553;-30
2023/09/24 07:11:56;;;;;;;2.58;1.83;;;;;;;;;;5011972;28;20050;-29
2023/09/24 07:14:23;;;;;;;2.22;1.63;;;;;;;;;;5012282;28;20129;-30
2023/09/24 07:16:50;;;;;;;2.40;1.90;;;20.10;85.10;;;;;;5012008;28;20065;-29
2023/09/24 07:19:19;;;;;;;1.95;1.75;;;20.40;84.80;;;;;;5011228;28;20124;-28
2023/09/24 07:21:46;;;;;;;3.38;1.90;;;20.30;73.30;;;;;;5011816;28;20123;-28
2023/09/24 07:24:14;;;;;;;2.08;1.45;;;20.90;76.50;;;;;;5009131;28;20443;-29
2023/09/24 07:26:42;;;;;;;2.05;1.55;;;21.10;84.70;;;;;;4997957;28;20133;-29
2023/09/24 07:29:09;;;;;;;2.25;1.65;;;20.30;74.40;;;;;;4991690;28;20142;-29
2023/09/24 07:31:36;;;;;;;2.70;1.60;;;;;;;;;;4994130;28;20133;-30
2023/09/24 07:34:05;;;;;;;2.42;1.58;;;20.50;84.00;;;;;;5001672;28;20142;-29
2023/09/24 07:36:32;;;;;;;2.30;1.58;;;;;;;;;;4997074;28;20049;-29
2023/09/24 07:38:59;;;;;;;2.10;1.50;;;20.40;83.80;;;;;;5011314;28;20056;-29
2023/09/24 07:41:27;;;;;;;2.63;1.60;;;20.60;83.80;;;;;;5011323;28;20124;-29
2023/09/24 07:43:54;;;;;;;2.00;1.45;;;;;;;;;;5011072;28;20136;-31
2023/09/24 07:46:20;;;;;;;1.90;1.40;;;21.70;84.10;;;;;;5010887;28;20133;-31
2023/09/24 07:48:48;;;;;;;2.88;1.50;;;20.80;72.00;;;;;;5011179;28;20569;-31
2023/09/24 07:51:16;;;;;;;1.60;1.40;;;21.00;76.80;;;;;;5011285;28;20056;-32
2023/09/24 07:53:43;;;;;;;2.80;2.10;;;;;;;;;;5011152;28;20077;-31
2023/09/24 07:56:10;;;;;;;2.20;1.58;;;22.30;81.30;;;;;;5025479;28;20052;-31
2023/09/24 07:58:38;;;;;;;3.05;1.60;;;20.30;78.40;;;;;;5019922;28;20648;-31
2023/09/24 08:01:06;;;;;;;2.47;1.50;;;21.40;83.10;;;;;;5015108;28;20140;-31
2023/09/24 08:03:33;;;;;;;1.60;1.23;;;;;;;;;;5014824;28;20046;-31
2023/09/24 08:06:00;;;;;;;1.55;1.30;;;21.30;75.30;;;;;;5014851;28;20455;-31
2023/09/24 08:08:27;;;;;;;1.65;1.40;;;;;;;;;;5013655;28;20196;-30
2023/09/24 08:10:54;;;;;;;3.15;1.58;;;21.20;82.30;;;;;;5011400;28;20149;-31
2023/09/24 08:13:21;;;;;;;3.33;1.60;;;;;;;;;;5002325;28;20129;-31
2023/09/24 08:15:49;;;;;;;3.70;1.40;;;21.40;66.90;;;;;;5009661;28;20129;-31
2023/09/24 08:18:16;;;;;;;2.67;1.35;;;20.70;66.70;;;;;;5008891;28;20435;-31
2023/09/24 08:20:44;;;;;;;2.95;1.50;;;;;;;;;;5005235;28;20046;-31
2023/09/24 08:23:12;;;;;;;2.60;2.05;;;;;;;;;;5008319;28;20521;-30
2023/09/24 08:25:40;;;;;;;2.00;1.38;;;;;;;;;;5007772;28;20507;-30
2023/09/24 08:28:07;;;;;;;1.98;1.45;;;21.80;74.00;;;;;;5014131;28;20057;-31
2023/09/24 08:30:34;;;;;;;3.53;1.67;;;21.20;73.80;;;;;;5013946;28;20129;-31
2023/09/24 08:33:03;;;;;;;2.03;1.48;;;21.70;66.40;;;;;;5013508;28;20081;-31
2023/09/24 08:35:30;;;;;;;3.47;1.45;;;21.70;81.70;;;;;;5011752;28;20100;-29
2023/09/24 08:37:57;;;;;;;2.38;1.40;;;21.00;71.80;;;;;;5007769;28;20046;-29
2023/09/24 08:40:24;;;;;;;2.00;1.23;;;21.90;66.30;;;;;;5010250;28;20056;-28
2023/09/24 08:42:51;;;;;;;2.50;1.40;;;21.20;77.50;;;;;;4998294;28;20481;-29
2023/09/24 08:45:19;;;;;;;1.90;1.20;;;22.00;66.20;;;;;;5004905;28;20054;-30
2023/09/24 08:47:46;;;;;;;2.63;1.30;;;22.50;81.50;;;;;;5013600;28;20050;-29
2023/09/24 08:50:14;;;;;;;2.30;1.35;;;22.00;66.10;;;;;;5018992;28;20068;-29
2023/09/24 08:52:42;;;;;;;2.45;1.50;;;21.80;81.30;;;;;;5033995;28;20128;-30
2023/09/24 08:55:09;;;;;;;2.17;1.25;;;21.90;70.20;;;;;;5024489;28;20477;-29
2023/09/24 08:57:36;;;;;;;2.92;1.35;;;22.00;67.50;;;;;;5013235;28;20103;-29
2023/09/24 09:00:04;;;;;;;3.33;1.30;;;21.90;77.70;;;;;;5014416;28;20477;-29
2023/09/24 09:02:31;;;;;;;2.00;1.30;;;21.80;73.60;;;;;;5014418;28;20483;-29
2023/09/24 09:04:57;;;;;;;2.33;1.40;;;22.70;81.50;;;;;;5014829;28;20061;-31
2023/09/24 09:07:25;;;;;;;1.98;1.30;;;22.60;81.50;;;;;;5014147;28;20125;-31
2023/09/24 09:09:54;;;;;;;2.42;1.20;;;21.80;78.00;;;;;;5014892;28;20208;-31
2023/09/24 09:12:21;;;;;;;1.80;1.30;;;;;;;;;;5014349;28;20411;-30
2023/09/24 09:14:47;;;;;;;2.38;1.40;;;21.70;81.20;;;;;;5015079;28;20149;-31
2023/09/24 09:17:14;;;;;;;1.67;1.30;;;22.90;81.90;;;;;;5014216;28;20129;-29
2023/09/24 09:19:49;;;;;;;3.03;1.70;;;22.20;69.60;;;;;;5014371;28;20053;-29
2023/09/24 09:22:17;;;;;;;1.70;1.42;;;23.00;82.60;;;;;;5014464;28;20049;-29
2023/09/24 09:24:45;;;;;;;1.70;1.30;;;21.80;81.70;;;;;;5014395;28;20056;-29
2023/09/24 09:27:12;;;;;;;4.30;1.50;;;21.80;72.60;;;;;;5014215;28;20049;-29
2023/09/24 09:29:38;;;;;;;1.70;1.20;;;21.10;81.70;;;;;;5014727;28;20133;-28
2023/09/24 09:32:06;;;;;;;3.53;1.40;;;;;;;;;;5014056;28;20228;-30
2023/09/24 09:34:33;;;;;;;2.67;1.50;;;21.60;81.40;;;;;;5014291;28;20125;-29
2023/09/24 09:37:14;;;;;;;1.88;1.30;;;20.20;65.60;;;;;;5019795;28;20060;-29
2023/09/24 09:39:42;;;;;;;3.25;1.33;;;;;;;;;;5034348;28;20140;-31
2023/09/24 09:42:10;;;;;;;2.60;1.35;;;22.20;82.20;;;;;;5034014;28;20091;-29
2023/09/24 09:44:37;;;;;;;2.33;1.40;;;21.60;81.90;;;;;;5033819;28;20558;-29
2023/09/24 09:47:04;;;;;;;2.78;1.60;;;21.80;71.30;;;;;;5033874;28;20049;-29
2023/09/24 09:49:31;;;;;;;2.53;1.35;;;;;;;;;;5025732;28;20117;-29
2023/09/24 09:52:00;;;;;;;2.85;1.77;;;;;;;;;;5013622;28;20133;-30
2023/09/24 09:54:27;;;;;;;2.65;1.38;;;21.00;81.90;;;;;;5013842;28;20136;-31
2023/09/24 09:56:54;;;;;;;2.55;1.30;;;;;;;;;;5014033;28;20089;-31
2023/09/24 09:59:22;;;;;;;2.05;1.10;;;20.80;81.60;;;;;;5013870;28;20133;-31
2023/09/24 10:01:49;;;;;;;2.50;1.48;;;21.50;69.70;;;;;;5013639;28;20049;-29
2023/09/24 10:04:16;;;;;;;1.63;1.30;;;20.80;81.20;;;;;;5013771;28;20137;-29
2023/09/24 10:06:43;;;;;;;2.88;1.33;;;21.60;72.00;;;;;;5013572;28;20092;-30
2023/09/24 10:09:34;;;;;;;2.17;1.40;;;21.40;81.70;;;;;;5013525;28;20474;-29
2023/09/24 10:12:06;;;;;;;3.50;1.40;;;21.40;82.00;;;;;;5013379;28;20045;-30
2023/09/24 10:14:35;;;;;;;3.67;1.30;;;21.50;75.90;;;;;;4999583;28;20093;-28
2023/09/24 10:17:21;;;;;;;4.50;1.30;;;21.40;66.60;;;;;;5010912;28;20084;-29
2023/09/24 10:19:48;;;;;;;3.53;1.38;;;21.20;82.10;;;;;;5010667;28;20080;-29
2023/09/24 10:22:25;;;;;;;1.73;1.25;;;21.40;66.60;;;;;;5012294;28;20496;-29
2023/09/24 10:24:52;;;;;;;2.22;1.40;;;21.20;82.00;;;;;;5012355;28;20050;-29
2023/09/24 10:27:25;;;;;;;2.70;1.40;;;21.30;66.60;;;;;;5012447;28;20465;-30
2023/09/24 10:30:07;;;;;;;1.88;1.30;;;22.20;82.40;;;;;;5013026;28;20050;-31
2023/09/24 10:32:58;;;;;;;2.40;1.38;;;21.20;78.50;;;;;;5012285;28;20403;-31
2023/09/24 10:35:24;;;;;;;1.92;1.33;;;21.10;82.50;;;;;;4992489;28;20125;-32
2023/09/24 10:38:01;;;;;;;2.40;1.20;;;21.20;66.80;;;;;;5012606;28;20129;-30
2023/09/24 10:40:29;;;;;;;2.50;1.38;;;21.50;82.90;;;;;;5010413;28;20050;-31
2023/09/24 10:43:12;;;;;;;2.13;1.30;;;21.10;66.80;;;;;;5012112;28;20118;-31
2023/09/24 10:45:40;;;;;;;2.67;1.50;;;21.40;82.50;;;;;;5011844;28;20129;-31
2023/09/24 10:48:07;;;;;;;3.63;1.42;;;20.60;82.30;;;;;;5012586;28;20136;-31
2023/09/24 10:50:34;;;;;;;2.83;1.20;;;20.80;69.40;;;;;;5012688;28;20132;-31
2023/09/24 10:53:02;;;;;;;2.42;1.40;;;21.10;71.70;;;;;;5012638;28;20050;-31
2023/09/24 10:55:34;;;;;;;3.20;1.73;;;21.30;70.10;;;;;;5005443;28;20502;-31
2023/09/24 10:58:01;;;;;;;2.80;1.40;;;21.00;73.90;;;;;;5012076;28;20483;-31
2023/09/24 11:00:29;;;;;;;3.28;1.40;;;21.10;76.50;;;;;;5012165;28;20137;-31
2023/09/24 11:02:58;;;;;;;3.08;1.40;;;21.10;82.50;;;;;;5012400;28;20141;-32
2023/09/24 11:05:24;;;;;;;4.68;1.40;;;20.80;74.70;;;;;;5012484;28;20435;-31
2023/09/24 11:07:51;;;;;;;2.67;1.27;;;21.40;82.60;;;;;;5008492;28;20100;-29
2023/09/24 11:10:18;;;;;;;4.38;1.20;;;21.10;82.10;;;;;;5004850;28;20128;-29
2023/09/24 11:12:48;;;;;;;4.25;1.40;;;21.00;82.10;;;;;;5009221;28;20045;-29
2023/09/24 11:15:15;;;;;;;2.75;1.30;;;20.60;81.80;;;;;;4993306;28;20130;-29
2023/09/24 11:17:42;;;;;;;2.72;1.35;;;;;;;;;;5000213;28;20129;-29
2023/09/24 11:20:11;;;;;;;4.30;1.63;;;20.50;82.10;;;;;;4998068;28;20047;-29
2023/09/24 11:22:38;;;;;;;3.22;1.40;;;20.90;82.30;;;;;;5001489;28;20042;-29
2023/09/24 11:25:05;;;;;;;3.10;1.50;;;20.40;68.50;;;;;;5003315;28;20137;-29
2023/09/24 11:27:33;;;;;;;3.17;1.27;;;20.80;81.70;;;;;;5009771;28;20133;-29
2023/09/24 11:29:59;;;;;;;1.98;1.30;;;20.80;82.10;;;;;;5012557;28;20054;-29
2023/09/24 11:32:27;;;;;;;2.30;1.20;;;;;;;;;;5011735;28;20137;-30
2023/09/24 11:35:06;;;;;;;2.20;1.30;;;19.90;81.70;;;;;;5006827;28;20100;-29
2023/09/24 11:37:49;;;;;;;2.55;1.38;;;20.90;66.80;;;;;;5004877;28;20053;-30
2023/09/24 11:40:23;;;;;;;3.42;1.55;;;20.50;82.50;;;;;;5002483;28;20129;-31
2023/09/24 11:42:51;;;;;;;1.83;1.20;;;21.70;82.90;;;;;;5009548;28;20104;-29
2023/09/24 11:45:18;;;;;;;3.25;1.42;;;20.90;75.80;;;;;;5011877;28;20387;-29
2023/09/24 11:47:46;;;;;;;5.07;1.38;;;;;;;;;;5011272;28;20068;-30
2023/09/24 11:50:12;;;;;;;3.15;1.08;;;21.00;82.10;;;;;;5011726;28;20068;-29
2023/09/24 11:52:40;;;;;;;3.20;1.30;;;21.00;66.80;;;;;;4999696;28;20605;-29
2023/09/24 11:55:09;;;;;;;3.50;1.17;;;21.00;82.20;;;;;;5001253;28;20054;-29
2023/09/24 11:57:36;;;;;;;5.07;1.30;;;20.40;79.40;;;;;;5022651;28;20092;-29
2023/09/24 12:00:04;;;;;;;5.43;1.30;;;20.90;82.50;;;;;;5031634;28;20472;-28
2023/09/24 12:02:30;;;;;;;2.38;1.30;;;20.80;82.20;;;;;;5031845;28;20081;-29
2023/09/24 12:04:57;;;;;;;2.97;1.48;;;;;;;;;;5031721;28;20145;-29
2023/09/24 12:07:26;;;;;;;11.43;1.48;;;21.50;73.80;;;;;;5031332;28;20128;-28
2023/09/24 12:09:53;;;;;;;1.55;1.20;;;21.30;82.60;;;;;;4992390;28;20046;-29
2023/09/24 12:12:21;;;;;;;4.65;1.42;;;20.90;82.30;;;;;;4991720;28;20486;-29
2023/09/24 12:14:48;;;;;;;2.97;1.30;;;21.00;82.00;;;;;;4992258;28;20134;-29
2023/09/24 12:17:15;;;;;;;3.55;1.25;;;;;;;;;;4992121;28;20134;-29
2023/09/24 12:19:41;;;;;;;2.67;1.33;;;21.30;66.80;;;;;;4992206;28;20133;-29
2023/09/24 12:22:08;;;;;;;4.78;1.27;;;;;;;;;;4992084;28;20125;-31
2023/09/24 12:24:35;;;;;;;6.40;1.30;;;21.30;81.90;;;;;;4991938;28;20044;-29
2023/09/24 12:27:02;;;;;;;3.15;1.20;;;22.10;76.40;;;;;;4999738;28;20045;-29
2023/09/24 12:29:32;;;;;;;3.47;1.33;;;21.30;71.50;;;;;;5020401;28;20125;-29
2023/09/24 12:31:59;;;;;;;3.58;1.30;;;;;;;;;;5010964;28;20081;-30
2023/09/24 12:34:25;;;;;;;5.18;1.27;;;21.30;81.90;;;;;;5007839;28;20654;-29
2023/09/24 12:36:52;;;;;;;13.82;1.70;;;20.50;81.60;;;;;;5004653;28;20181;-29
2023/09/24 12:39:20;;;;;;;8.52;1.52;;;;;;;;;;4998992;28;20124;-30
2023/09/24 12:41:48;;;;;;;3.20;1.20;;;21.50;66.40;;;;;;5006332;28;20054;-31
2023/09/24 12:44:14;;;;;;;4.20;1.40;;;20.70;81.80;;;;;;5003870;28;20081;-29
2023/09/24 12:46:43;;;;;;;3.72;1.15;;;20.90;66.10;;;;;;5003420;28;20141;-29
2023/09/24 12:49:10;;;;;;;4.13;1.40;;;21.50;79.70;;;;;;5007724;28;20133;-28
2023/09/24 12:51:36;;;;;;;2.88;1.20;;;21.10;82.00;;;;;;5014140;28;20571;-29
2023/09/24 12:54:04;;;;;;;4.45;1.38;;;;;;;;;;5014502;28;20125;-29
2023/09/24 12:56:30;;;;;;;2.25;1.23;;;21.80;82.30;;;;;;5014306;28;20136;-28
2023/09/24 12:59:00;;;;;;;3.22;1.30;;;21.70;66.40;;;;;;5014596;28;20125;-28
2023/09/24 13:01:27;;;;;;;4.38;1.40;;;22.20;82.10;;;;;;5012557;28;20125;-28
2023/09/24 13:03:55;;;;;;;4.90;1.23;;;21.60;66.80;;;;;;5013272;28;20450;-29
2023/09/24 13:06:22;;;;;;;3.30;1.20;;;20.90;65.90;;;;;;5011396;28;20491;-29
2023/09/24 13:08:50;;;;;;;3.50;1.50;;;21.40;82.00;;;;;;5014899;28;20045;-28
2023/09/24 13:11:17;;;;;;;3.20;1.20;;;21.70;81.80;;;;;;5014343;28;20076;-29
2023/09/24 13:13:44;;;;;;;5.60;1.25;;;;;;;;;;5012631;28;20054;-29